Time;durP1;ratioP1;P1;durP2;ratioP2;P2;SDS_P1;SDS_P2;PMS_P1;PMS_P2;Temp;Humidity;BMP_temperature;BMP_pressure;BME280_temperature;BME280_humidity;BME280_pressure;Samples;Min_cycle;Max_cycle;Signal;HPM_P1;HPM_P2
2023/07/06 00:01:02;;;;;;;0.10;0.10;;;;;;;16.50;72.37;101584.53;5044245;28;20097;-77
2023/07/06 00:03:31;;;;;;;0.10;0.10;;;;;;;16.50;71.84;101581.00;5050881;28;20025;-78
2023/07/06 00:05:58;;;;;;;0.10;0.10;;;;;;;16.50;71.66;101581.00;5051115;28;20025;-78
2023/07/06 00:08:24;;;;;;;0.20;0.20;;;;;;;16.49;71.70;101580.09;5052346;28;20509;-78
2023/07/06 00:10:50;;;;;;;0.03;0.03;;;;;;;16.47;71.40;101595.34;5051626;28;20574;-78
2023/07/06 00:13:17;;;;;;;0.10;0.10;;;;;;;16.44;71.68;101587.41;5051557;28;20040;-78
2023/07/06 00:15:44;;;;;;;0.10;0.10;;;;;;;16.43;71.49;101585.66;5048874;28;20084;-78
2023/07/06 00:18:11;;;;;;;0.10;0.10;;;;;;;16.42;71.42;101599.06;5057839;28;20028;-78
2023/07/06 00:20:37;;;;;;;2.10;0.65;;;;;;;16.38;71.52;101600.97;5053547;28;20025;-78
2023/07/06 00:23:05;;;;;;;0.00;0.00;;;;;;;16.37;71.12;101601.88;5049318;28;20407;-78
2023/07/06 00:25:33;;;;;;;0.00;0.00;;;;;;;16.37;71.55;101601.03;5048498;28;20514;-77
2023/07/06 00:28:01;;;;;;;0.10;0.10;;;;;;;16.34;71.65;101593.97;5047787;28;20035;-77
2023/07/06 00:31:07;;;;;;;0.10;0.10;;;;;;;16.30;71.95;101595.00;5045809;28;20088;-77
2023/07/06 00:33:17;;;;;;;0.00;0.00;;;;;;;16.29;71.61;101593.25;5046086;28;20580;-78
2023/07/06 00:35:44;;;;;;;0.00;0.00;;;;;;;16.26;72.02;101594.22;5058675;28;20044;-78
2023/07/06 00:38:14;;;;;;;0.10;0.10;;;;;;;16.23;72.09;101588.97;5039440;28;20033;-75
2023/07/06 00:40:44;;;;;;;0.10;0.10;;;;;;;16.24;72.12;101600.56;5043386;28;20028;-76
2023/07/06 00:43:12;;;;;;;0.10;0.10;;;;;;;16.27;71.94;101605.78;5048163;28;20033;-78
2023/07/06 00:45:39;;;;;;;0.10;0.10;;;;;;;16.27;72.04;101601.31;5049094;28;20072;-78
2023/07/06 00:48:14;;;;;;;1.00;1.00;;;;;;;16.30;72.38;101603.03;5053026;28;20020;-78
2023/07/06 00:50:40;;;;;;;0.47;0.47;;;;;;;16.29;71.98;101602.16;5047838;28;20448;-78
2023/07/06 00:53:12;;;;;;;0.10;0.10;;;;;;;16.32;71.88;101606.50;5047702;28;20037;-78
2023/07/06 00:55:41;;;;;;;0.10;0.10;;;;;;;16.35;71.90;101603.75;5037871;28;20048;-78
2023/07/06 00:58:16;;;;;;;0.10;0.10;;;;;;;16.40;72.04;101604.47;5044610;28;20033;-78
2023/07/06 01:00:44;;;;;;;0.43;0.43;;;;;;;16.40;72.01;101604.47;5038561;28;20032;-78
2023/07/06 01:03:10;;;;;;;0.10;0.10;;;;;;;16.41;71.76;101595.53;5050967;28;20040;-77
2023/07/06 01:05:40;;;;;;;0.10;0.10;;;;;;;16.47;71.56;101592.66;5056626;28;20211;-78
2023/07/06 01:08:15;;;;;;;0.05;0.05;;;;;;;16.54;71.78;101592.47;5050771;28;20398;-78
2023/07/06 01:10:43;;;;;;;0.10;0.10;;;;;;;16.49;71.89;101585.44;5049617;28;20021;-78
2023/07/06 01:13:09;;;;;;;0.10;0.10;;;;;;;16.55;71.98;101588.84;5051464;28;20033;-78
2023/07/06 01:15:44;;;;;;;0.10;0.10;;;;;;;16.58;71.75;101594.09;5051123;28;20025;-78
2023/07/06 01:18:35;;;;;;;0.10;0.10;;;;;;;16.61;71.50;101589.53;5048945;28;20755;-78
2023/07/06 01:24:14;;;;;;;0.10;0.10;;;;;;;16.64;71.31;101585.88;5067701;27;20390;-78
2023/07/06 01:27:05;;;;;;;0.00;0.00;;;;;;;16.66;70.88;101594.72;5067709;27;20039;-77
2023/07/06 01:32:27;;;;;;;0.10;0.10;;;;;;;16.62;70.80;101593.06;5047184;28;20392;-78
2023/07/06 01:37:35;;;;;;;0.10;0.10;;;;;;;16.64;70.77;101591.22;5072901;28;20131;-77
2023/07/06 01:40:04;;;;;;;0.30;0.30;;;;;;;16.60;71.28;101592.25;5070545;28;20036;-77
2023/07/06 01:42:32;;;;;;;0.10;0.10;;;;;;;16.62;70.92;101585.03;5064848;28;20021;-78
2023/07/06 01:45:03;;;;;;;0.08;0.08;;;;;;;16.58;71.08;101583.41;5065675;28;20071;-78
2023/07/06 01:47:33;;;;;;;0.10;0.10;;;;;;;16.56;71.07;101587.91;5065017;28;20028;-77
2023/07/06 01:50:01;;;;;;;0.52;0.52;;;;;;;16.57;70.91;101584.31;5066407;28;20035;-77
2023/07/06 01:55:26;;;;;;;0.40;0.40;;;;;;;16.58;70.95;101586.06;5012209;28;21177;-79
2023/07/06 02:00:34;;;;;;;0.15;0.15;;;;;;;16.48;70.94;101580.16;5113304;27;20379;-76
2023/07/06 02:03:05;;;;;;;0.10;0.10;;;;;;;16.48;70.40;101583.69;5094574;28;20498;-76
2023/07/06 02:05:31;;;;;;;0.10;0.10;;;;;;;16.45;70.64;101583.81;5087872;28;20035;-76
2023/07/06 02:07:59;;;;;;;0.10;0.10;;;;;;;16.44;70.95;101584.72;5091038;28;20062;-77
2023/07/06 02:10:25;;;;;;;0.10;0.10;;;;;;;16.43;70.50;101585.66;5096277;28;20081;-76
2023/07/06 02:12:51;;;;;;;0.10;0.10;;;;;;;16.38;70.86;101579.56;5086256;28;20021;-76
2023/07/06 02:15:19;;;;;;;0.08;0.08;;;;;;;16.38;70.79;101590.28;5093973;28;20035;-76
2023/07/06 02:17:46;;;;;;;0.10;0.10;;;;;;;16.37;70.79;101577.81;5095321;28;20020;-76
2023/07/06 02:20:15;;;;;;;0.10;0.10;;;;;;;16.35;70.84;101590.38;5097391;28;20119;-76
2023/07/06 02:22:42;;;;;;;0.10;0.10;;;;;;;16.30;71.17;101584.31;5094115;28;20024;-76
2023/07/06 02:25:08;;;;;;;0.10;0.10;;;;;;;16.29;70.87;101582.56;5094058;28;20024;-76
2023/07/06 02:27:35;;;;;;;0.10;0.10;;;;;;;16.29;70.87;101582.56;5085628;28;20032;-76
2023/07/06 02:30:01;;;;;;;0.10;0.10;;;;;;;16.26;71.28;101577.28;5090448;28;20028;-76
2023/07/06 02:32:28;;;;;;;0.30;0.30;;;;;;;16.28;71.11;101586.16;5095582;28;20492;-76
2023/07/06 02:34:54;;;;;;;0.10;0.10;;;;;;;16.28;70.96;101581.66;5093964;28;20054;-79
2023/07/06 02:37:22;;;;;;;0.10;0.10;;;;;;;16.28;71.33;101586.16;5096106;28;20036;-79
2023/07/06 02:39:49;;;;;;;0.10;0.10;;;;;;;16.28;71.25;101588.81;5096570;28;20377;-78
2023/07/06 02:42:16;;;;;;;0.10;0.10;;;;;;;16.25;71.77;101584.47;5096705;28;20055;-78
2023/07/06 02:44:43;;;;;;;0.10;0.10;;;;;;;16.27;71.56;101584.41;5091852;28;20031;-78
2023/07/06 02:47:10;;;;;;;0.10;0.10;;;;;;;16.25;71.41;101596.94;5093993;28;20035;-78
2023/07/06 02:49:36;;;;;;;0.10;0.10;;;;;;;16.18;71.90;101594.44;5094091;28;20099;-78
2023/07/06 02:52:04;;;;;;;0.10;0.10;;;;;;;16.20;71.82;101598.88;5097093;28;20027;-78
2023/07/06 02:54:32;;;;;;;0.10;0.10;;;;;;;16.19;71.82;101598.03;5095514;28;20115;-77
2023/07/06 02:57:00;;;;;;;0.10;0.10;;;;;;;16.20;71.98;101599.78;5091948;28;20027;-77
2023/07/06 02:59:29;;;;;;;0.10;0.10;;;;;;;16.24;71.95;101600.56;5092871;28;20036;-77
2023/07/06 03:01:59;;;;;;;0.10;0.10;;;;;;;16.25;72.15;101597.81;5096645;28;20027;-78
2023/07/06 03:04:27;;;;;;;0.15;0.15;;;;;;;16.28;72.22;101602.19;5095894;28;20020;-77
2023/07/06 03:06:55;;;;;;;0.00;0.00;;;;;;;16.29;72.42;101604.81;5093587;28;20028;-78
2023/07/06 03:09:23;;;;;;;0.40;0.40;;;;;;;16.33;72.27;101610.94;5094337;28;20664;-78
2023/07/06 03:11:52;;;;;;;0.38;0.38;;;;;;;16.35;72.47;101603.75;5077042;28;20092;-78
2023/07/06 03:14:25;;;;;;;0.20;0.20;;;;;;;16.35;72.52;101606.44;5077709;28;20031;-77
2023/07/06 03:16:53;;;;;;;0.10;0.10;;;;;;;16.39;72.36;101605.41;5079769;28;20028;-78
2023/07/06 03:19:21;;;;;;;0.28;0.28;;;;;;;16.38;72.20;101614.34;5082158;28;20024;-79
2023/07/06 03:21:47;;;;;;;0.10;0.10;;;;;;;16.37;72.67;101612.59;5086579;28;20052;-77
2023/07/06 03:24:16;;;;;;;0.13;0.13;;;;;;;16.40;72.23;101611.59;5079497;28;20033;-78
2023/07/06 03:26:43;;;;;;;0.10;0.10;;;;;;;16.39;72.42;101615.25;5074797;28;20032;-78
2023/07/06 03:29:13;;;;;;;0.10;0.10;;;;;;;16.40;72.00;101619.63;5082580;28;20074;-78
2023/07/06 03:31:40;;;;;;;0.10;0.10;;;;;;;16.40;72.38;101623.22;5082811;28;20056;-78
2023/07/06 03:34:07;;;;;;;0.10;0.10;;;;;;;16.42;72.07;101625.81;5085579;28;20106;-78
2023/07/06 03:36:34;;;;;;;0.68;0.68;;;;;;;16.44;72.19;101624.84;5083568;28;20173;-77
2023/07/06 03:39:01;;;;;;;0.30;0.30;;;;;;;16.46;72.46;101622.13;5080586;28;20027;-77
2023/07/06 03:41:27;;;;;;;0.10;0.10;;;;;;;16.46;72.33;101623.00;5071611;28;20041;-77
2023/07/06 03:43:58;;;;;;;0.25;0.25;;;;;;;16.44;72.27;101616.81;5082722;28;20032;-77
2023/07/06 03:46:33;;;;;;;0.10;0.10;;;;;;;16.47;72.15;101616.75;5083234;28;20028;-77
2023/07/06 03:49:00;;;;;;;0.10;0.10;;;;;;;16.48;72.40;101626.50;5082610;28;20024;-78
2023/07/06 03:51:27;;;;;;;0.10;0.10;;;;;;;16.49;72.39;101622.03;5082687;28;20060;-77
2023/07/06 03:53:53;;;;;;;0.10;0.10;;;;;;;16.50;72.14;101624.66;5078960;28;20078;-77
2023/07/06 03:56:27;;;;;;;0.10;0.10;;;;;;;16.50;72.19;101624.66;5081921;28;20024;-77
2023/07/06 03:58:54;;;;;;;0.10;0.10;;;;;;;16.51;72.31;101630.91;5078201;28;20020;-77
2023/07/06 04:01:20;;;;;;;0.10;0.10;;;;;;;16.52;72.22;101621.91;5078009;28;20040;-78
2023/07/06 04:03:46;;;;;;;0.00;0.00;;;;;;;16.55;72.25;101628.97;5082708;28;20486;-77
2023/07/06 04:06:13;;;;;;;0.00;0.00;;;;;;;16.54;72.22;101636.13;5084722;28;20080;-77
2023/07/06 04:08:39;;;;;;;0.00;0.00;;;;;;;16.52;72.64;101631.75;5086499;28;20025;-77
2023/07/06 04:11:06;;;;;;;0.10;0.10;;;;;;;16.50;72.55;101634.50;5087648;28;20497;-78
2023/07/06 04:13:33;;;;;;;0.10;0.10;;;;;;;16.49;72.78;101633.59;5080912;28;20058;-77
2023/07/06 04:15:59;;;;;;;0.20;0.20;;;;;;;16.50;72.48;101635.34;5081339;28;20035;-77
2023/07/06 04:18:25;;;;;;;0.10;0.10;;;;;;;16.49;72.40;101638.94;5078664;28;20036;-77
2023/07/06 04:20:53;;;;;;;0.20;0.20;;;;;;;16.48;72.48;101644.34;5089036;28;20490;-77
2023/07/06 04:23:19;;;;;;;0.10;0.10;;;;;;;16.48;72.77;101645.22;5079775;28;20043;-77
2023/07/06 04:25:45;;;;;;;0.55;0.55;;;;;;;16.47;73.12;101640.81;5073224;28;20024;-78
2023/07/06 04:28:14;;;;;;;0.30;0.30;;;;;;;16.50;73.02;101640.69;5081538;28;20032;-78
2023/07/06 04:30:43;;;;;;;0.00;0.00;;;;;;;16.54;72.92;101641.47;5079175;28;20020;-78
2023/07/06 04:33:15;;;;;;;0.10;0.10;;;;;;;16.56;72.88;101638.75;5075131;28;20028;-78
2023/07/06 04:35:42;;;;;;;0.75;0.75;;;;;;;16.49;73.06;101643.44;5080075;28;20016;-78
2023/07/06 04:38:10;;;;;;;0.10;0.10;;;;;;;16.48;73.36;101637.19;5082532;28;20503;-77
2023/07/06 04:40:38;;;;;;;0.10;0.10;;;;;;;16.51;73.02;101652.28;5077081;28;20069;-77
2023/07/06 04:43:04;;;;;;;0.17;0.17;;;;;;;16.49;73.06;101655.00;5078119;28;20107;-77
2023/07/06 04:45:31;;;;;;;0.30;0.30;;;;;;;16.52;73.43;101648.66;5078272;28;20394;-77
2023/07/06 04:47:57;;;;;;;1.63;1.27;;;;;;;16.54;72.98;101651.31;5068561;28;20101;-77
2023/07/06 04:50:23;;;;;;;0.10;0.10;;;;;;;16.58;73.65;101652.97;5079049;28;20024;-77
2023/07/06 04:52:55;;;;;;;0.00;0.00;;;;;;;16.64;73.72;101658.13;5078724;28;20044;-77
2023/07/06 04:55:23;;;;;;;0.20;0.20;;;;;;;16.71;73.01;101665.03;5075503;28;20071;-78
2023/07/06 04:57:54;;;;;;;0.10;0.10;;;;;;;16.75;73.14;101668.47;5081048;28;20490;-78
2023/07/06 05:00:24;;;;;;;0.03;0.03;;;;;;;16.78;72.89;101666.53;5079485;28;20756;-77
2023/07/06 05:02:53;;;;;;;0.10;0.10;;;;;;;16.85;73.65;101671.69;5077645;28;20086;-77
2023/07/06 05:05:20;;;;;;;0.75;0.75;;;;;;;16.88;73.81;101674.28;5084033;28;20020;-77
2023/07/06 05:07:46;;;;;;;0.00;0.00;;;;;;;16.95;73.63;101666.03;5094274;28;20017;-77
2023/07/06 05:10:15;;;;;;;0.00;0.00;;;;;;;17.03;73.45;101665.75;5089784;28;20028;-78
2023/07/06 05:12:41;;;;;;;0.40;0.40;;;;;;;17.09;73.91;101672.72;5088838;28;20025;-78
2023/07/06 05:15:08;;;;;;;0.15;0.15;;;;;;;17.13;73.14;101672.56;5090172;28;20025;-77
2023/07/06 05:17:34;;;;;;;0.90;0.38;;;;;;;17.17;73.49;101672.44;5086812;28;20081;-77
2023/07/06 05:20:00;;;;;;;0.10;0.10;;;;;;;17.20;73.20;101667.88;5081168;28;20478;-77
2023/07/06 05:22:27;;;;;;;0.10;0.10;;;;;;;17.24;73.31;101674.00;5079543;28;20115;-76
2023/07/06 05:24:53;;;;;;;0.10;0.10;;;;;;;17.28;72.98;101686.34;5076616;28;20524;-77
2023/07/06 05:27:20;;;;;;;1.85;0.50;;;;;;;17.30;72.92;101674.66;5078382;28;20032;-77
2023/07/06 05:29:46;;;;;;;0.20;0.20;;;;;;;17.33;72.82;101673.66;5079230;28;20029;-77
2023/07/06 05:32:12;;;;;;;0.30;0.30;;;;;;;17.37;73.06;101675.31;5080293;28;20118;-79
2023/07/06 05:34:38;;;;;;;0.10;0.10;;;;;;;17.44;72.68;101687.56;5077532;28;20040;-76
2023/07/06 05:37:04;;;;;;;0.10;0.10;;;;;;;17.53;72.89;101683.66;5079306;28;20115;-79
2023/07/06 05:39:33;;;;;;;0.10;0.10;;;;;;;17.57;73.15;101681.75;5077585;28;20104;-77
2023/07/06 05:41:59;;;;;;;0.10;0.10;;;;;;;17.65;73.28;101679.69;5070662;28;20036;-79
2023/07/06 05:44:25;;;;;;;0.10;0.10;;;;;;;17.74;73.29;101687.38;5086042;28;20039;-79
2023/07/06 05:46:51;;;;;;;0.10;0.10;;;;;;;17.82;72.93;101686.22;5079597;28;20024;-78
2023/07/06 05:49:17;;;;;;;0.38;0.38;;;;;;;17.86;72.80;101685.19;5074571;28;20078;-76
2023/07/06 05:51:43;;;;;;;0.10;0.10;;;;;;;17.83;72.46;101696.03;5076715;28;20029;-77
2023/07/06 05:54:09;;;;;;;0.10;0.10;;;;;;;17.78;72.59;101697.06;5075075;28;20028;-77
2023/07/06 05:56:37;;;;;;;0.77;0.77;;;;;;;17.83;72.71;101696.03;5080472;28;20398;-78
2023/07/06 05:59:04;;;;;;;0.13;0.13;;;;;;;17.89;72.74;101699.34;5084787;28;20379;-78
2023/07/06 06:01:32;;;;;;;0.47;0.47;;;;;;;17.95;72.56;101703.66;5075577;28;20033;-77
2023/07/06 06:03:58;;;;;;;4.20;0.77;;;;;;;18.07;72.39;101703.19;5074499;28;20043;-77
2023/07/06 06:06:26;;;;;;;0.10;0.10;;;;;;;18.08;72.35;101704.94;5083608;28;20035;-77
2023/07/06 06:08:53;;;;;;;0.52;0.20;;;;;;;18.10;72.12;101705.72;5101755;28;20116;-76
2023/07/06 06:11:21;;;;;;;3.92;0.55;;;;;;;18.13;72.08;101711.94;5093301;28;20028;-77
2023/07/06 06:13:49;;;;;;;0.10;0.10;;;;;;;18.14;71.94;101719.03;5082382;28;20031;-77
2023/07/06 06:16:16;;;;;;;0.75;0.73;;;;;;;18.07;71.89;101705.88;5085296;28;20024;-77
2023/07/06 06:18:42;;;;;;;0.90;0.77;;;;;;;18.09;71.75;101720.09;5076548;28;20064;-78
2023/07/06 06:21:08;;;;;;;0.43;0.32;;;;;;;18.13;72.06;101722.66;5074914;28;20111;-77
2023/07/06 06:23:34;;;;;;;1.20;1.20;;;;;;;18.19;72.35;101722.41;5076833;28;20503;-77
2023/07/06 06:26:01;;;;;;;0.47;0.47;;;;;;;18.35;72.05;101723.56;5072195;28;20048;-77
2023/07/06 06:28:27;;;;;;;0.30;0.30;;;;;;;18.47;72.07;101729.41;5076886;28;20060;-77
2023/07/06 06:30:55;;;;;;;0.15;0.15;;;;;;;18.62;71.53;101728.81;5079817;28;20027;-77
2023/07/06 06:33:21;;;;;;;1.20;0.47;;;;;;;18.65;71.24;101730.50;5079866;28;20036;-77
2023/07/06 06:35:48;;;;;;;1.67;1.05;;;;;;;18.67;71.17;101737.53;5078890;28;20020;-77
2023/07/06 06:38:14;;;;;;;0.47;0.47;;;;;;;18.69;71.38;101746.44;5077253;28;20069;-77
2023/07/06 06:40:40;;;;;;;0.22;0.22;;;;;;;18.77;71.23;101727.31;5082105;28;20470;-76
2023/07/06 06:43:06;;;;;;;0.20;0.20;;;;;;;18.85;70.76;101737.75;5077571;28;20073;-77
2023/07/06 06:45:33;;;;;;;0.17;0.17;;;;;;;18.92;70.68;101737.44;5072404;28;20032;-76
2023/07/06 06:47:59;;;;;;;0.10;0.10;;;;;;;19.04;70.73;101738.78;5074325;28;20757;-77
2023/07/06 06:50:28;;;;;;;2.63;0.80;;;;;;;19.13;69.88;101742.00;5071861;28;20055;-76
2023/07/06 06:52:55;;;;;;;0.30;0.30;;;;;;;19.10;69.74;101747.50;5072037;28;20040;-75
2023/07/06 06:55:21;;;;;;;1.88;1.75;;;;;;;19.11;69.63;101743.91;5072901;28;20044;-77
2023/07/06 06:57:47;;;;;;;0.20;0.20;;;;;;;19.12;69.48;101754.56;5074433;28;20024;-77
2023/07/06 07:00:14;;;;;;;0.73;0.73;;;;;;;19.03;69.39;101752.28;5076095;28;20024;-78
2023/07/06 07:02:41;;;;;;;0.75;0.75;;;;;;;19.07;69.25;101752.06;5076315;28;20024;-77
2023/07/06 07:05:09;;;;;;;0.20;0.20;;;;;;;19.00;69.57;101758.63;5075224;28;20024;-76
2023/07/06 07:07:38;;;;;;;0.38;0.38;;;;;;;19.06;69.34;101752.13;5071353;28;20025;-77
2023/07/06 07:10:09;;;;;;;1.30;1.27;;;;;;;18.97;69.39;101753.38;5072684;28;20078;-76
2023/07/06 07:12:39;;;;;;;2.42;0.38;;;;;;;19.01;69.49;101746.94;5074569;28;20028;-76
2023/07/06 07:15:07;;;;;;;0.68;0.52;;;;;;;19.05;69.57;101745.00;5073928;28;20342;-77
2023/07/06 07:17:34;;;;;;;0.20;0.20;;;;;;;19.14;68.84;101749.13;5073425;28;20039;-77
2023/07/06 07:20:00;;;;;;;0.13;0.13;;;;;;;19.31;69.26;101754.66;5073722;28;20390;-76
2023/07/06 07:22:27;;;;;;;6.60;0.93;;;;;;;19.39;69.47;101755.22;5082392;28;20028;-77
2023/07/06 07:24:53;;;;;;;0.40;0.40;;;;;;;19.52;69.25;101757.38;5076928;28;20025;-76
2023/07/06 07:27:19;;;;;;;1.55;1.30;;;;;;;19.58;68.09;101759.81;5079811;28;20439;-76
2023/07/06 07:29:47;;;;;;;5.47;1.38;;;;;;;19.65;67.97;101755.03;5076175;28;20035;-77
2023/07/06 07:32:13;;;;;;;0.50;0.50;;;;;;;19.56;67.51;101761.69;5071019;28;20119;-77
2023/07/06 07:34:40;;;;;;;2.10;1.98;;;;;;;19.56;67.01;101759.00;5073954;28;20017;-77
2023/07/06 07:37:10;;;;;;;0.13;0.13;;;;;;;19.64;66.90;101753.28;5073182;28;20389;-77
2023/07/06 07:39:37;;;;;;;0.25;0.25;;;;;;;19.68;66.81;101755.78;5073495;28;20478;-77
2023/07/06 07:42:03;;;;;;;0.20;0.20;;;;;;;19.82;67.19;101756.97;5072990;28;20025;-78
2023/07/06 07:44:29;;;;;;;0.40;0.40;;;;;;;20.01;66.32;101757.06;5073869;28;20024;-77
2023/07/06 07:46:56;;;;;;;0.10;0.10;;;;;;;20.09;65.39;101771.03;5072801;28;20036;-77
2023/07/06 07:49:22;;;;;;;0.38;0.38;;;;;;;20.20;65.57;101757.09;5072934;28;20024;-76
2023/07/06 07:51:48;;;;;;;0.10;0.10;;;;;;;20.29;65.40;101764.75;5072859;28;20448;-77
2023/07/06 07:54:14;;;;;;;0.45;0.45;;;;;;;20.35;65.09;101768.97;5073263;28;20502;-76
2023/07/06 07:56:42;;;;;;;1.02;0.65;;;;;;;20.44;65.63;101775.75;5070237;28;20036;-76
2023/07/06 07:59:09;;;;;;;0.55;0.55;;;;;;;20.47;65.63;101776.47;5071948;28;20063;-77
2023/07/06 08:01:35;;;;;;;0.98;0.52;;;;;;;20.58;65.64;101781.34;5072350;28;20569;-77
2023/07/06 08:04:02;;;;;;;0.10;0.10;;;;;;;20.66;65.08;101770.19;5072602;28;20032;-78
2023/07/06 08:06:28;;;;;;;0.10;0.10;;;;;;;20.69;64.25;101778.16;5072210;28;20032;-76
2023/07/06 08:08:54;;;;;;;0.10;0.10;;;;;;;20.72;63.65;101782.53;5071969;28;20099;-77
2023/07/06 08:11:23;;;;;;;0.10;0.10;;;;;;;20.74;64.21;101791.44;5070839;28;20044;-76
2023/07/06 08:13:51;;;;;;;0.13;0.13;;;;;;;20.78;63.40;101783.09;5072584;28;20040;-77
2023/07/06 08:16:19;;;;;;;0.75;0.75;;;;;;;20.81;63.19;101782.97;5071760;28;20035;-76
2023/07/06 08:18:46;;;;;;;0.40;0.40;;;;;;;20.79;62.09;101786.69;5063663;28;20021;-77
2023/07/06 08:21:13;;;;;;;0.10;0.10;;;;;;;20.81;62.57;101784.78;5072089;28;20521;-77
2023/07/06 08:23:45;;;;;;;0.10;0.10;;;;;;;20.88;62.90;101785.38;5071221;28;20074;-76
2023/07/06 08:26:11;;;;;;;0.95;0.95;;;;;;;20.88;62.09;101791.63;5065084;28;20028;-77
2023/07/06 08:28:37;;;;;;;0.13;0.13;;;;;;;20.99;61.99;101791.97;5070800;28;20029;-77
2023/07/06 08:31:12;;;;;;;0.10;0.10;;;;;;;21.19;62.11;101784.72;5072336;28;20434;-77
2023/07/06 08:33:38;;;;;;;0.40;0.40;;;;;;;21.26;61.04;101786.19;5072562;28;20028;-77
2023/07/06 08:36:06;;;;;;;1.05;1.00;;;;;;;21.42;61.14;101791.66;5071902;28;20079;-77
2023/07/06 08:38:33;;;;;;;0.20;0.17;;;;;;;21.51;60.63;101790.31;5071895;28;20397;-77
2023/07/06 08:41:03;;;;;;;0.20;0.20;;;;;;;21.52;58.65;101797.47;5070774;28;20173;-77
2023/07/06 08:43:32;;;;;;;0.10;0.10;;;;;;;21.55;58.44;101791.91;5071626;28;20121;-77
2023/07/06 08:46:04;;;;;;;0.32;0.32;;;;;;;21.61;60.03;101783.53;5071535;28;20157;-77
2023/07/06 08:48:33;;;;;;;0.20;0.20;;;;;;;21.59;59.69;101784.56;5071304;28;20036;-77
2023/07/06 08:51:05;;;;;;;0.00;0.00;;;;;;;21.50;57.35;101788.56;5072003;28;20048;-77
2023/07/06 08:53:33;;;;;;;0.10;0.10;;;;;;;21.40;56.64;101792.69;5074383;28;20563;-77
2023/07/06 08:56:03;;;;;;;0.30;0.30;;;;;;;21.41;57.74;101789.03;5072550;28;20478;-77
2023/07/06 08:58:31;;;;;;;4.47;1.75;;;;;;;21.43;58.78;101795.22;5072819;28;20036;-76
2023/07/06 09:03:44;;;;;;;0.10;0.10;;;;;;;21.43;57.56;101808.72;5036326;27;3467770;-76
2023/07/06 09:06:18;;;;;;;0.40;0.40;;;;;;;21.46;56.84;101808.56;5145024;27;20035;-78
2023/07/06 09:08:45;;;;;;;0.10;0.10;;;;;;;21.37;55.17;101804.50;5131393;27;20106;-77
2023/07/06 09:11:13;;;;;;;0.13;0.13;;;;;;;21.30;55.65;101808.47;5116331;28;20032;-78
2023/07/06 09:13:49;;;;;;;0.10;0.10;;;;;;;21.25;55.89;101811.38;5120737;28;20032;-78
2023/07/06 09:16:19;;;;;;;0.00;0.00;;;;;;;21.14;56.01;101817.28;5112100;28;20107;-77
2023/07/06 09:18:47;;;;;;;0.00;0.00;;;;;;;21.09;57.19;101824.72;5097942;28;20384;-76
2023/07/06 09:21:16;;;;;;;0.10;0.10;;;;;;;20.93;57.42;101829.97;5116956;28;20057;-78
2023/07/06 09:23:45;;;;;;;0.45;0.45;;;;;;;20.84;57.96;101833.13;5121912;28;20023;-78
2023/07/06 09:26:35;;;;;;;0.00;0.00;;;;;;;20.75;58.82;101839.81;5106312;28;20118;-76
2023/07/06 09:29:24;;;;;;;0.10;0.10;;;;;;;20.56;59.46;101845.19;5114087;28;20023;-78
2023/07/06 09:32:14;;;;;;;0.10;0.10;;;;;;;20.27;59.16;101852.72;5122069;28;20026;-78
2023/07/06 09:34:44;;;;;;;1.55;0.75;;;;;;;20.01;60.28;101860.16;5119307;28;20020;-78
2023/07/06 09:37:13;;;;;;;0.10;0.10;;;;;;;19.81;61.46;101852.94;5119328;28;20019;-78
2023/07/06 09:39:40;;;;;;;0.10;0.10;;;;;;;19.75;61.58;101849.59;5111497;28;20028;-78
2023/07/06 09:42:12;;;;;;;0.13;0.13;;;;;;;19.67;62.10;101848.13;5118971;28;20028;-77
2023/07/06 09:44:38;;;;;;;0.10;0.10;;;;;;;19.62;62.30;101852.81;5120990;28;20079;-78
2023/07/06 09:47:11;;;;;;;0.15;0.15;;;;;;;19.65;63.08;101846.44;5119720;28;20025;-78
2023/07/06 09:49:47;;;;;;;0.55;0.55;;;;;;;19.67;62.70;101849.94;5120674;28;20596;-78
2023/07/06 09:52:15;;;;;;;0.20;0.20;;;;;;;19.76;62.78;101848.69;5121687;28;20034;-77
2023/07/06 09:54:55;;;;;;;0.10;0.10;;;;;;;19.95;62.63;101849.66;5115482;28;20024;-78
2023/07/06 09:57:26;;;;;;;0.10;0.10;;;;;;;20.10;62.12;101842.75;5121923;28;20548;-76
2023/07/06 09:59:53;;;;;;;0.10;0.10;;;;;;;20.25;61.54;101846.56;5112186;28;20028;-77
2023/07/06 10:08:11;;;;;;;0.10;0.10;;;;;;;20.98;60.81;101852.19;5113834;27;1217805;-78
2023/07/06 10:16:52;;;;;;;0.22;0.22;;;;;;;21.05;53.33;101868.06;5111205;27;20414;-77
2023/07/06 10:19:57;;;;;;;0.10;0.10;;;;;;;21.17;56.35;101864.78;5112522;28;20032;-78
2023/07/06 10:26:17;;;;;;;0.10;0.10;;;;;;;21.36;56.06;101863.88;5070613;27;20411;-77
2023/07/06 10:28:50;;;;;;;0.05;0.05;;;;;;;21.36;55.00;101858.47;5070871;28;20052;-78
2023/07/06 10:31:25;;;;;;;0.10;0.10;;;;;;;21.47;54.76;101858.81;5057022;27;20405;-77
2023/07/06 10:34:04;;;;;;;0.10;0.10;;;;;;;21.50;54.85;101855.97;5037239;27;20490;-77
2023/07/06 10:36:35;;;;;;;0.20;0.20;;;;;;;21.43;54.08;101852.72;5044892;27;20051;-77
2023/07/06 10:39:11;;;;;;;0.10;0.10;;;;;;;21.49;54.66;101856.94;5045300;27;20017;-77
2023/07/06 10:41:49;;;;;;;0.10;0.10;;;;;;;21.62;53.50;101850.00;5049250;27;20033;-79
2023/07/06 10:44:44;;;;;;;0.10;0.10;;;;;;;21.69;50.83;101853.25;5054045;28;20028;-77
2023/07/06 10:50:26;;;;;;;0.00;0.00;;;;;;;21.86;47.14;101854.19;5113760;27;20400;-76
2023/07/06 10:52:59;;;;;;;0.10;0.10;;;;;;;22.06;50.42;101850.50;5087494;28;20468;-77
2023/07/06 10:55:34;;;;;;;0.10;0.10;;;;;;;22.23;50.44;101839.66;5088561;28;20028;-77
2023/07/06 10:58:23;;;;;;;0.00;0.00;;;;;;;22.35;44.14;101848.06;5103063;28;20051;-77
2023/07/06 11:00:50;;;;;;;0.10;0.10;;;;;;;22.46;44.17;101848.38;5104714;28;20405;-77
2023/07/06 11:03:22;;;;;;;0.10;0.10;;;;;;;22.59;45.55;101843.16;5087766;28;20044;-77
2023/07/06 11:05:55;;;;;;;0.10;0.10;;;;;;;22.81;45.62;101853.66;5089166;28;20078;-78
2023/07/06 11:09:03;;;;;;;0.65;0.65;;;;;;;22.85;43.96;101852.53;5088197;28;20020;-77
2023/07/06 11:11:34;;;;;;;0.28;0.20;;;;;;;22.77;39.90;101862.91;5085907;28;20553;-77
2023/07/06 11:14:24;;;;;;;0.52;0.52;;;;;;;22.85;41.66;101859.78;5088294;28;20421;-75
2023/07/06 11:17:03;;;;;;;0.10;0.10;;;;;;;22.80;39.59;101859.16;5088478;28;20019;-78
2023/07/06 11:19:36;;;;;;;0.20;0.20;;;;;;;22.88;40.97;101857.78;5087565;28;20107;-76
2023/07/06 11:22:09;;;;;;;0.10;0.10;;;;;;;22.76;38.80;101877.38;5087825;28;20393;-76
2023/07/06 11:24:41;;;;;;;0.10;0.10;;;;;;;22.65;39.18;101864.44;5086557;28;20645;-77
2023/07/06 11:27:22;;;;;;;0.20;0.20;;;;;;;22.81;39.61;101863.63;5088938;28;20043;-78
2023/07/06 11:29:48;;;;;;;0.22;0.22;;;;;;;22.90;39.04;101861.28;5090830;28;20020;-77
2023/07/06 11:43:37;;;;;;;0.10;0.10;;;;;;;23.43;38.79;101869.13;5125569;27;20393;-77
2023/07/06 11:46:34;;;;;;;0.30;0.30;;;;;;;23.52;39.01;101871.28;5123385;27;20062;-77
2023/07/06 11:49:20;;;;;;;0.10;0.10;;;;;;;23.61;39.83;101863.59;5119888;27;20031;-77
2023/07/06 11:51:48;;;;;;;0.10;0.10;;;;;;;23.79;40.22;101867.03;5140409;27;20012;-77
2023/07/06 11:54:43;;;;;;;0.10;0.10;;;;;;;23.79;38.33;101889.56;5137976;27;20122;-79
2023/07/06 11:59:55;;;;;;;0.10;0.10;;;;;;;23.94;39.28;101870.69;5111749;28;20043;-78
2023/07/06 12:02:26;;;;;;;0.20;0.20;;;;;;;24.08;39.74;101868.03;5127497;27;20019;-79
2023/07/06 12:04:52;;;;;;;0.10;0.10;;;;;;;24.16;38.72;101871.16;5132713;27;20028;-78
2023/07/06 12:07:28;;;;;;;0.10;0.10;;;;;;;24.01;35.21;101872.94;5126657;27;20032;-78
2023/07/06 12:09:54;;;;;;;0.10;0.10;;;;;;;24.05;36.15;101874.50;5113434;28;20392;-77
2023/07/06 12:12:23;;;;;;;0.32;0.32;;;;;;;24.05;35.25;101862.78;5114372;28;20502;-77
2023/07/06 12:14:52;;;;;;;0.10;0.10;;;;;;;24.06;36.40;101864.53;5118959;28;20030;-78
2023/07/06 12:17:19;;;;;;;0.00;0.00;;;;;;;24.10;35.44;101886.88;5119642;28;20481;-77
2023/07/06 12:19:45;;;;;;;0.08;0.08;;;;;;;24.05;34.83;101862.78;5113453;28;20027;-78
2023/07/06 12:22:16;;;;;;;0.05;0.05;;;;;;;24.29;36.50;101865.84;5108241;28;20081;-77
2023/07/06 12:24:42;;;;;;;0.10;0.10;;;;;;;24.36;35.56;101871.72;5101878;28;20028;-77